sensor_id;sensor_type;location;lat;lon;timestamp;P1;durP1;ratioP1;P2;durP2;ratioP2
6436;SDS011;3251;53.550;9.918;2024-03-02T00:00:38;33.57;;;16.57;;
6436;SDS011;3251;53.550;9.918;2024-03-02T00:03:05;41.63;;;19.87;;
6436;SDS011;3251;53.550;9.918;2024-03-02T00:05:34;39.93;;;17.60;;
6436;SDS011;3251;53.550;9.918;2024-03-02T00:08:00;33.77;;;16.50;;
6436;SDS011;3251;53.550;9.918;2024-03-02T00:10:30;45.73;;;19.57;;
6436;SDS011;3251;53.550;9.918;2024-03-02T00:13:02;45.00;;;21.60;;
6436;SDS011;3251;53.550;9.918;2024-03-02T00:15:40;38.80;;;18.63;;
6436;SDS011;3251;53.550;9.918;2024-03-02T00:18:14;45.83;;;18.13;;
6436;SDS011;3251;53.550;9.918;2024-03-02T00:20:40;40.90;;;17.40;;
6436;SDS011;3251;53.550;9.918;2024-03-02T00:23:07;39.13;;;17.97;;
6436;SDS011;3251;53.550;9.918;2024-03-02T00:28:02;38.60;;;19.97;;
6436;SDS011;3251;53.550;9.918;2024-03-02T00:33:12;42.63;;;20.20;;
6436;SDS011;3251;53.550;9.918;2024-03-02T00:35:38;42.67;;;21.93;;
6436;SDS011;3251;53.550;9.918;2024-03-02T00:38:04;66.83;;;30.23;;
6436;SDS011;3251;53.550;9.918;2024-03-02T00:40:31;63.97;;;25.07;;
6436;SDS011;3251;53.550;9.918;2024-03-02T00:42:57;49.00;;;23.93;;
6436;SDS011;3251;53.550;9.918;2024-03-02T00:45:24;47.97;;;21.13;;
6436;SDS011;3251;53.550;9.918;2024-03-02T00:47:51;41.53;;;18.97;;
6436;SDS011;3251;53.550;9.918;2024-03-02T00:50:17;43.70;;;22.50;;
6436;SDS011;3251;53.550;9.918;2024-03-02T00:52:43;53.67;;;22.97;;
6436;SDS011;3251;53.550;9.918;2024-03-02T00:55:09;47.23;;;20.10;;
6436;SDS011;3251;53.550;9.918;2024-03-02T00:57:35;48.43;;;22.37;;
6436;SDS011;3251;53.550;9.918;2024-03-02T01:00:02;45.40;;;20.67;;
6436;SDS011;3251;53.550;9.918;2024-03-02T01:02:32;52.57;;;21.77;;
6436;SDS011;3251;53.550;9.918;2024-03-02T01:04:58;43.33;;;23.03;;
6436;SDS011;3251;53.550;9.918;2024-03-02T01:07:24;44.97;;;20.70;;
6436;SDS011;3251;53.550;9.918;2024-03-02T01:09:50;44.63;;;21.23;;
6436;SDS011;3251;53.550;9.918;2024-03-02T01:12:16;49.50;;;22.30;;
6436;SDS011;3251;53.550;9.918;2024-03-02T01:14:42;53.07;;;23.23;;
6436;SDS011;3251;53.550;9.918;2024-03-02T01:17:08;51.20;;;23.50;;
6436;SDS011;3251;53.550;9.918;2024-03-02T01:19:35;56.43;;;24.10;;
6436;SDS011;3251;53.550;9.918;2024-03-02T01:22:01;51.33;;;23.40;;
6436;SDS011;3251;53.550;9.918;2024-03-02T01:24:27;52.20;;;25.80;;
6436;SDS011;3251;53.550;9.918;2024-03-02T01:26:53;61.53;;;26.37;;
6436;SDS011;3251;53.550;9.918;2024-03-02T01:29:19;47.60;;;25.13;;
6436;SDS011;3251;53.550;9.918;2024-03-02T01:31:45;56.23;;;25.30;;
6436;SDS011;3251;53.550;9.918;2024-03-02T01:34:12;60.20;;;25.67;;
6436;SDS011;3251;53.550;9.918;2024-03-02T01:36:38;54.53;;;25.30;;
6436;SDS011;3251;53.550;9.918;2024-03-02T01:39:04;67.10;;;26.23;;
6436;SDS011;3251;53.550;9.918;2024-03-02T01:41:34;53.00;;;24.47;;
6436;SDS011;3251;53.550;9.918;2024-03-02T01:44:00;55.70;;;26.43;;
6436;SDS011;3251;53.550;9.918;2024-03-02T01:46:26;49.80;;;24.80;;
6436;SDS011;3251;53.550;9.918;2024-03-02T01:48:52;55.57;;;24.17;;
6436;SDS011;3251;53.550;9.918;2024-03-02T01:51:18;54.00;;;23.80;;
6436;SDS011;3251;53.550;9.918;2024-03-02T01:53:44;65.00;;;26.27;;
6436;SDS011;3251;53.550;9.918;2024-03-02T01:56:11;53.03;;;25.50;;
6436;SDS011;3251;53.550;9.918;2024-03-02T01:58:37;65.37;;;25.70;;
6436;SDS011;3251;53.550;9.918;2024-03-02T02:01:03;56.30;;;25.60;;
6436;SDS011;3251;53.550;9.918;2024-03-02T02:03:29;57.63;;;27.70;;
6436;SDS011;3251;53.550;9.918;2024-03-02T02:05:55;57.00;;;27.70;;
6436;SDS011;3251;53.550;9.918;2024-03-02T02:08:21;57.20;;;26.50;;
6436;SDS011;3251;53.550;9.918;2024-03-02T02:10:47;65.23;;;29.50;;
6436;SDS011;3251;53.550;9.918;2024-03-02T02:13:14;63.37;;;26.47;;
6436;SDS011;3251;53.550;9.918;2024-03-02T02:15:40;65.10;;;29.10;;
6436;SDS011;3251;53.550;9.918;2024-03-02T02:18:06;59.93;;;28.27;;
6436;SDS011;3251;53.550;9.918;2024-03-02T02:20:32;51.27;;;24.77;;
6436;SDS011;3251;53.550;9.918;2024-03-02T02:22:59;70.10;;;27.27;;
6436;SDS011;3251;53.550;9.918;2024-03-02T02:25:26;69.53;;;29.33;;
6436;SDS011;3251;53.550;9.918;2024-03-02T02:27:53;64.43;;;28.90;;
6436;SDS011;3251;53.550;9.918;2024-03-02T02:30:23;63.13;;;27.97;;
6436;SDS011;3251;53.550;9.918;2024-03-02T02:32:49;62.70;;;27.57;;
6436;SDS011;3251;53.550;9.918;2024-03-02T02:35:15;56.90;;;26.67;;
6436;SDS011;3251;53.550;9.918;2024-03-02T02:37:42;70.13;;;28.43;;
6436;SDS011;3251;53.550;9.918;2024-03-02T02:40:08;61.93;;;28.60;;
6436;SDS011;3251;53.550;9.918;2024-03-02T02:42:34;67.10;;;28.80;;
6436;SDS011;3251;53.550;9.918;2024-03-02T02:45:00;60.97;;;27.63;;
6436;SDS011;3251;53.550;9.918;2024-03-02T02:47:26;64.63;;;28.67;;
6436;SDS011;3251;53.550;9.918;2024-03-02T02:49:54;72.20;;;26.57;;
6436;SDS011;3251;53.550;9.918;2024-03-02T02:52:21;66.27;;;26.87;;
6436;SDS011;3251;53.550;9.918;2024-03-02T02:54:47;67.50;;;32.23;;
6436;SDS011;3251;53.550;9.918;2024-03-02T02:57:13;65.93;;;25.80;;
6436;SDS011;3251;53.550;9.918;2024-03-02T02:59:39;63.90;;;29.60;;
6436;SDS011;3251;53.550;9.918;2024-03-02T03:02:05;61.07;;;29.17;;
6436;SDS011;3251;53.550;9.918;2024-03-02T03:04:31;54.63;;;26.47;;
6436;SDS011;3251;53.550;9.918;2024-03-02T03:06:57;54.13;;;25.50;;
6436;SDS011;3251;53.550;9.918;2024-03-02T03:09:23;58.07;;;26.03;;
6436;SDS011;3251;53.550;9.918;2024-03-02T03:11:50;56.73;;;25.40;;
6436;SDS011;3251;53.550;9.918;2024-03-02T03:14:16;60.97;;;27.47;;
6436;SDS011;3251;53.550;9.918;2024-03-02T03:16:42;58.33;;;27.80;;
6436;SDS011;3251;53.550;9.918;2024-03-02T03:19:08;63.63;;;29.30;;
6436;SDS011;3251;53.550;9.918;2024-03-02T03:21:34;69.37;;;27.30;;
6436;SDS011;3251;53.550;9.918;2024-03-02T03:24:00;48.20;;;24.80;;
6436;SDS011;3251;53.550;9.918;2024-03-02T03:26:26;58.13;;;26.40;;
6436;SDS011;3251;53.550;9.918;2024-03-02T03:28:52;58.83;;;26.40;;
6436;SDS011;3251;53.550;9.918;2024-03-02T03:31:18;63.20;;;28.03;;
6436;SDS011;3251;53.550;9.918;2024-03-02T03:33:44;55.23;;;25.40;;
6436;SDS011;3251;53.550;9.918;2024-03-02T03:36:10;65.10;;;27.40;;
6436;SDS011;3251;53.550;9.918;2024-03-02T03:38:36;60.70;;;26.10;;
6436;SDS011;3251;53.550;9.918;2024-03-02T03:41:03;55.07;;;24.37;;
6436;SDS011;3251;53.550;9.918;2024-03-02T03:43:29;54.67;;;25.87;;
6436;SDS011;3251;53.550;9.918;2024-03-02T03:45:55;54.60;;;24.93;;
6436;SDS011;3251;53.550;9.918;2024-03-02T03:48:21;55.33;;;25.83;;
6436;SDS011;3251;53.550;9.918;2024-03-02T03:50:47;55.77;;;25.70;;
6436;SDS011;3251;53.550;9.918;2024-03-02T03:53:13;72.63;;;29.60;;
6436;SDS011;3251;53.550;9.918;2024-03-02T03:55:40;66.03;;;27.10;;
6436;SDS011;3251;53.550;9.918;2024-03-02T03:58:06;61.40;;;27.17;;
6436;SDS011;3251;53.550;9.918;2024-03-02T04:00:32;75.37;;;28.63;;
6436;SDS011;3251;53.550;9.918;2024-03-02T04:02:58;69.50;;;27.90;;
6436;SDS011;3251;53.550;9.918;2024-03-02T04:05:24;58.77;;;24.90;;
6436;SDS011;3251;53.550;9.918;2024-03-02T04:07:50;64.17;;;25.80;;
6436;SDS011;3251;53.550;9.918;2024-03-02T04:10:16;53.57;;;24.53;;
6436;SDS011;3251;53.550;9.918;2024-03-02T04:12:43;71.30;;;25.43;;
6436;SDS011;3251;53.550;9.918;2024-03-02T04:15:09;64.97;;;26.93;;
6436;SDS011;3251;53.550;9.918;2024-03-02T04:17:35;56.07;;;24.60;;
6436;SDS011;3251;53.550;9.918;2024-03-02T04:20:02;59.50;;;27.27;;
6436;SDS011;3251;53.550;9.918;2024-03-02T04:22:30;50.77;;;22.67;;
6436;SDS011;3251;53.550;9.918;2024-03-02T04:24:56;56.73;;;23.80;;
6436;SDS011;3251;53.550;9.918;2024-03-02T04:27:22;68.07;;;27.00;;
6436;SDS011;3251;53.550;9.918;2024-03-02T04:29:48;63.93;;;26.50;;
6436;SDS011;3251;53.550;9.918;2024-03-02T04:32:14;60.17;;;26.50;;
6436;SDS011;3251;53.550;9.918;2024-03-02T04:34:41;58.57;;;26.07;;
6436;SDS011;3251;53.550;9.918;2024-03-02T04:37:07;54.47;;;25.23;;
6436;SDS011;3251;53.550;9.918;2024-03-02T04:39:34;63.27;;;25.73;;
6436;SDS011;3251;53.550;9.918;2024-03-02T04:42:00;50.30;;;25.97;;
6436;SDS011;3251;53.550;9.918;2024-03-02T04:44:27;59.03;;;24.90;;
6436;SDS011;3251;53.550;9.918;2024-03-02T04:46:54;53.73;;;25.33;;
6436;SDS011;3251;53.550;9.918;2024-03-02T04:49:20;52.27;;;25.50;;
6436;SDS011;3251;53.550;9.918;2024-03-02T04:51:46;65.83;;;26.97;;
6436;SDS011;3251;53.550;9.918;2024-03-02T04:54:12;60.60;;;28.10;;
6436;SDS011;3251;53.550;9.918;2024-03-02T04:56:39;52.37;;;24.37;;
6436;SDS011;3251;53.550;9.918;2024-03-02T04:59:09;51.37;;;24.13;;
6436;SDS011;3251;53.550;9.918;2024-03-02T05:01:36;56.50;;;24.97;;
6436;SDS011;3251;53.550;9.918;2024-03-02T05:04:02;62.23;;;25.60;;
6436;SDS011;3251;53.550;9.918;2024-03-02T05:06:28;43.80;;;22.87;;
6436;SDS011;3251;53.550;9.918;2024-03-02T05:08:55;61.27;;;24.63;;
6436;SDS011;3251;53.550;9.918;2024-03-02T05:11:21;55.37;;;24.60;;
6436;SDS011;3251;53.550;9.918;2024-03-02T05:14:05;55.47;;;22.73;;
6436;SDS011;3251;53.550;9.918;2024-03-02T05:16:35;51.37;;;24.77;;
6436;SDS011;3251;53.550;9.918;2024-03-02T05:19:05;61.23;;;25.97;;
6436;SDS011;3251;53.550;9.918;2024-03-02T05:21:32;56.53;;;24.67;;
6436;SDS011;3251;53.550;9.918;2024-03-02T05:23:58;53.13;;;23.20;;
6436;SDS011;3251;53.550;9.918;2024-03-02T05:26:25;55.83;;;28.63;;
6436;SDS011;3251;53.550;9.918;2024-03-02T05:28:51;58.77;;;26.30;;
6436;SDS011;3251;53.550;9.918;2024-03-02T05:31:17;57.50;;;27.20;;
6436;SDS011;3251;53.550;9.918;2024-03-02T05:33:43;54.37;;;25.10;;
6436;SDS011;3251;53.550;9.918;2024-03-02T05:36:09;49.30;;;23.57;;
6436;SDS011;3251;53.550;9.918;2024-03-02T05:38:35;49.57;;;24.37;;
6436;SDS011;3251;53.550;9.918;2024-03-02T05:41:02;57.03;;;25.83;;
6436;SDS011;3251;53.550;9.918;2024-03-02T05:43:28;53.33;;;24.43;;
6436;SDS011;3251;53.550;9.918;2024-03-02T05:45:54;66.77;;;25.50;;
6436;SDS011;3251;53.550;9.918;2024-03-02T05:48:20;60.37;;;24.73;;
6436;SDS011;3251;53.550;9.918;2024-03-02T05:50:46;49.53;;;24.90;;
6436;SDS011;3251;53.550;9.918;2024-03-02T05:53:12;49.47;;;25.57;;
6436;SDS011;3251;53.550;9.918;2024-03-02T05:55:38;53.37;;;26.83;;
6436;SDS011;3251;53.550;9.918;2024-03-02T05:58:04;52.80;;;23.70;;
6436;SDS011;3251;53.550;9.918;2024-03-02T06:00:30;59.07;;;26.20;;
6436;SDS011;3251;53.550;9.918;2024-03-02T06:02:56;58.10;;;24.80;;
6436;SDS011;3251;53.550;9.918;2024-03-02T06:05:23;58.67;;;25.07;;
6436;SDS011;3251;53.550;9.918;2024-03-02T06:07:49;49.00;;;22.60;;
6436;SDS011;3251;53.550;9.918;2024-03-02T06:10:16;61.23;;;25.40;;
6436;SDS011;3251;53.550;9.918;2024-03-02T06:12:42;47.37;;;24.37;;
6436;SDS011;3251;53.550;9.918;2024-03-02T06:15:09;51.73;;;24.10;;
6436;SDS011;3251;53.550;9.918;2024-03-02T06:17:36;58.00;;;23.87;;
6436;SDS011;3251;53.550;9.918;2024-03-02T06:20:02;45.87;;;23.30;;
6436;SDS011;3251;53.550;9.918;2024-03-02T06:22:28;58.87;;;25.60;;
6436;SDS011;3251;53.550;9.918;2024-03-02T06:24:54;54.30;;;24.43;;
6436;SDS011;3251;53.550;9.918;2024-03-02T06:27:21;47.40;;;21.53;;
6436;SDS011;3251;53.550;9.918;2024-03-02T06:29:47;44.80;;;23.60;;
6436;SDS011;3251;53.550;9.918;2024-03-02T06:32:13;47.43;;;23.53;;
6436;SDS011;3251;53.550;9.918;2024-03-02T06:34:39;50.20;;;22.47;;
6436;SDS011;3251;53.550;9.918;2024-03-02T06:37:05;67.07;;;26.37;;
6436;SDS011;3251;53.550;9.918;2024-03-02T06:39:32;46.73;;;24.73;;
6436;SDS011;3251;53.550;9.918;2024-03-02T06:41:59;44.80;;;22.83;;
6436;SDS011;3251;53.550;9.918;2024-03-02T06:44:25;46.43;;;24.07;;
6436;SDS011;3251;53.550;9.918;2024-03-02T06:46:51;50.43;;;25.80;;
6436;SDS011;3251;53.550;9.918;2024-03-02T06:49:18;45.43;;;21.10;;
6436;SDS011;3251;53.550;9.918;2024-03-02T06:51:44;52.37;;;25.30;;
6436;SDS011;3251;53.550;9.918;2024-03-02T06:54:10;48.03;;;22.13;;
6436;SDS011;3251;53.550;9.918;2024-03-02T06:56:36;48.83;;;24.03;;
6436;SDS011;3251;53.550;9.918;2024-03-02T06:59:04;52.30;;;23.63;;
6436;SDS011;3251;53.550;9.918;2024-03-02T07:01:31;50.23;;;23.60;;
6436;SDS011;3251;53.550;9.918;2024-03-02T07:03:58;43.07;;;23.10;;
6436;SDS011;3251;53.550;9.918;2024-03-02T07:06:24;58.30;;;25.23;;
6436;SDS011;3251;53.550;9.918;2024-03-02T07:08:50;46.40;;;23.50;;
6436;SDS011;3251;53.550;9.918;2024-03-02T07:11:16;58.13;;;26.20;;
6436;SDS011;3251;53.550;9.918;2024-03-02T07:13:42;40.33;;;21.27;;
6436;SDS011;3251;53.550;9.918;2024-03-02T07:16:08;44.40;;;21.53;;
6436;SDS011;3251;53.550;9.918;2024-03-02T07:18:53;43.77;;;21.40;;
6436;SDS011;3251;53.550;9.918;2024-03-02T07:21:20;53.97;;;22.40;;
6436;SDS011;3251;53.550;9.918;2024-03-02T07:23:47;42.47;;;22.90;;
6436;SDS011;3251;53.550;9.918;2024-03-02T07:26:13;43.10;;;21.30;;
6436;SDS011;3251;53.550;9.918;2024-03-02T07:28:46;48.83;;;22.20;;
6436;SDS011;3251;53.550;9.918;2024-03-02T07:31:15;49.23;;;22.40;;
6436;SDS011;3251;53.550;9.918;2024-03-02T07:33:43;50.30;;;23.20;;
6436;SDS011;3251;53.550;9.918;2024-03-02T07:36:09;42.90;;;22.30;;
6436;SDS011;3251;53.550;9.918;2024-03-02T07:38:35;42.57;;;22.80;;
6436;SDS011;3251;53.550;9.918;2024-03-02T07:41:01;47.20;;;21.13;;
6436;SDS011;3251;53.550;9.918;2024-03-02T07:43:29;44.23;;;21.43;;
6436;SDS011;3251;53.550;9.918;2024-03-02T07:45:58;45.63;;;21.90;;
6436;SDS011;3251;53.550;9.918;2024-03-02T07:48:24;50.30;;;21.77;;
6436;SDS011;3251;53.550;9.918;2024-03-02T07:50:50;39.57;;;18.97;;
6436;SDS011;3251;53.550;9.918;2024-03-02T07:53:16;47.17;;;21.50;;
6436;SDS011;3251;53.550;9.918;2024-03-02T07:55:42;35.10;;;20.00;;
6436;SDS011;3251;53.550;9.918;2024-03-02T07:58:09;38.80;;;19.40;;
6436;SDS011;3251;53.550;9.918;2024-03-02T08:00:36;43.80;;;21.53;;
6436;SDS011;3251;53.550;9.918;2024-03-02T08:03:04;40.57;;;21.87;;
6436;SDS011;3251;53.550;9.918;2024-03-02T08:05:30;42.90;;;20.77;;
6436;SDS011;3251;53.550;9.918;2024-03-02T08:07:56;36.73;;;18.63;;
6436;SDS011;3251;53.550;9.918;2024-03-02T08:10:23;48.73;;;21.00;;
6436;SDS011;3251;53.550;9.918;2024-03-02T08:12:49;36.37;;;20.60;;
6436;SDS011;3251;53.550;9.918;2024-03-02T08:15:15;49.80;;;21.37;;
6436;SDS011;3251;53.550;9.918;2024-03-02T08:17:41;39.60;;;20.03;;
6436;SDS011;3251;53.550;9.918;2024-03-02T08:20:13;38.60;;;20.43;;
6436;SDS011;3251;53.550;9.918;2024-03-02T08:22:39;41.90;;;18.60;;
6436;SDS011;3251;53.550;9.918;2024-03-02T08:25:06;40.97;;;21.73;;
6436;SDS011;3251;53.550;9.918;2024-03-02T08:27:33;44.60;;;21.73;;
6436;SDS011;3251;53.550;9.918;2024-03-02T08:29:59;71.77;;;35.23;;
6436;SDS011;3251;53.550;9.918;2024-03-02T08:32:25;51.10;;;23.93;;
6436;SDS011;3251;53.550;9.918;2024-03-02T08:34:51;50.17;;;22.50;;
6436;SDS011;3251;53.550;9.918;2024-03-02T08:37:17;53.30;;;23.87;;
6436;SDS011;3251;53.550;9.918;2024-03-02T08:39:44;47.27;;;23.93;;
6436;SDS011;3251;53.550;9.918;2024-03-02T08:42:10;45.73;;;21.53;;
6436;SDS011;3251;53.550;9.918;2024-03-02T08:44:37;41.13;;;21.07;;
6436;SDS011;3251;53.550;9.918;2024-03-02T08:47:03;47.50;;;20.20;;
6436;SDS011;3251;53.550;9.918;2024-03-02T08:49:29;42.93;;;22.73;;
6436;SDS011;3251;53.550;9.918;2024-03-02T08:51:55;126.77;;;53.90;;
6436;SDS011;3251;53.550;9.918;2024-03-02T08:54:21;57.57;;;26.87;;
6436;SDS011;3251;53.550;9.918;2024-03-02T08:56:48;52.97;;;24.40;;
6436;SDS011;3251;53.550;9.918;2024-03-02T08:59:15;44.10;;;22.57;;
6436;SDS011;3251;53.550;9.918;2024-03-02T09:01:41;40.30;;;20.87;;
6436;SDS011;3251;53.550;9.918;2024-03-02T09:04:07;52.10;;;22.47;;
6436;SDS011;3251;53.550;9.918;2024-03-02T09:06:34;45.37;;;22.23;;
6436;SDS011;3251;53.550;9.918;2024-03-02T09:09:00;45.23;;;19.50;;
6436;SDS011;3251;53.550;9.918;2024-03-02T09:11:26;37.17;;;19.70;;
6436;SDS011;3251;53.550;9.918;2024-03-02T09:13:52;37.43;;;19.40;;
6436;SDS011;3251;53.550;9.918;2024-03-02T09:16:19;38.90;;;19.27;;
6436;SDS011;3251;53.550;9.918;2024-03-02T09:18:46;45.83;;;19.97;;
6436;SDS011;3251;53.550;9.918;2024-03-02T09:21:12;86.90;;;37.87;;
6436;SDS011;3251;53.550;9.918;2024-03-02T09:23:38;53.93;;;26.77;;
6436;SDS011;3251;53.550;9.918;2024-03-02T09:26:05;54.73;;;23.13;;
6436;SDS011;3251;53.550;9.918;2024-03-02T09:28:31;47.07;;;21.07;;
6436;SDS011;3251;53.550;9.918;2024-03-02T09:30:57;29.67;;;17.87;;
6436;SDS011;3251;53.550;9.918;2024-03-02T09:33:23;47.93;;;16.97;;
6436;SDS011;3251;53.550;9.918;2024-03-02T09:35:49;78.60;;;37.73;;
6436;SDS011;3251;53.550;9.918;2024-03-02T09:38:15;42.43;;;22.00;;
6436;SDS011;3251;53.550;9.918;2024-03-02T09:40:42;37.77;;;22.67;;
6436;SDS011;3251;53.550;9.918;2024-03-02T09:43:08;46.50;;;21.27;;
6436;SDS011;3251;53.550;9.918;2024-03-02T09:45:34;44.03;;;23.80;;
6436;SDS011;3251;53.550;9.918;2024-03-02T09:48:00;73.60;;;30.87;;
6436;SDS011;3251;53.550;9.918;2024-03-02T09:50:26;70.80;;;31.50;;
6436;SDS011;3251;53.550;9.918;2024-03-02T09:52:53;46.40;;;21.23;;
6436;SDS011;3251;53.550;9.918;2024-03-02T09:55:19;42.87;;;17.90;;
6436;SDS011;3251;53.550;9.918;2024-03-02T09:57:46;36.90;;;17.27;;
6436;SDS011;3251;53.550;9.918;2024-03-02T10:00:14;32.47;;;17.80;;
6436;SDS011;3251;53.550;9.918;2024-03-02T10:02:40;38.17;;;19.00;;
6436;SDS011;3251;53.550;9.918;2024-03-02T10:05:07;31.90;;;15.50;;
6436;SDS011;3251;53.550;9.918;2024-03-02T10:07:33;31.27;;;17.43;;
6436;SDS011;3251;53.550;9.918;2024-03-02T10:10:00;33.03;;;16.50;;
6436;SDS011;3251;53.550;9.918;2024-03-02T10:12:37;39.87;;;16.10;;
6436;SDS011;3251;53.550;9.918;2024-03-02T10:15:03;32.70;;;18.23;;
6436;SDS011;3251;53.550;9.918;2024-03-02T10:17:33;36.50;;;16.00;;
6436;SDS011;3251;53.550;9.918;2024-03-02T10:19:59;32.80;;;15.93;;
6436;SDS011;3251;53.550;9.918;2024-03-02T10:22:45;41.93;;;21.87;;
6436;SDS011;3251;53.550;9.918;2024-03-02T10:25:27;37.30;;;19.80;;
6436;SDS011;3251;53.550;9.918;2024-03-02T10:27:56;111.43;;;39.10;;
6436;SDS011;3251;53.550;9.918;2024-03-02T10:30:22;41.37;;;21.53;;
6436;SDS011;3251;53.550;9.918;2024-03-02T10:32:49;37.17;;;18.10;;
6436;SDS011;3251;53.550;9.918;2024-03-02T10:35:16;28.17;;;14.90;;
6436;SDS011;3251;53.550;9.918;2024-03-02T10:37:42;22.40;;;14.20;;
6436;SDS011;3251;53.550;9.918;2024-03-02T10:40:10;34.63;;;15.97;;
6436;SDS011;3251;53.550;9.918;2024-03-02T10:42:37;24.27;;;12.40;;
6436;SDS011;3251;53.550;9.918;2024-03-02T10:45:05;28.97;;;14.87;;
6436;SDS011;3251;53.550;9.918;2024-03-02T10:47:31;39.70;;;13.77;;
6436;SDS011;3251;53.550;9.918;2024-03-02T10:49:59;24.80;;;11.53;;
6436;SDS011;3251;53.550;9.918;2024-03-02T10:52:26;21.60;;;11.40;;
6436;SDS011;3251;53.550;9.918;2024-03-02T10:54:52;19.27;;;11.27;;
6436;SDS011;3251;53.550;9.918;2024-03-02T10:57:19;18.43;;;10.93;;
6436;SDS011;3251;53.550;9.918;2024-03-02T10:59:56;25.60;;;11.03;;
6436;SDS011;3251;53.550;9.918;2024-03-02T11:02:22;19.73;;;11.40;;
6436;SDS011;3251;53.550;9.918;2024-03-02T11:04:50;20.10;;;10.50;;
6436;SDS011;3251;53.550;9.918;2024-03-02T11:07:18;18.17;;;10.60;;
6436;SDS011;3251;53.550;9.918;2024-03-02T11:09:49;48.73;;;22.83;;
6436;SDS011;3251;53.550;9.918;2024-03-02T11:12:31;16.63;;;10.63;;
6436;SDS011;3251;53.550;9.918;2024-03-02T11:15:00;25.10;;;13.27;;
6436;SDS011;3251;53.550;9.918;2024-03-02T11:17:26;26.37;;;11.87;;
6436;SDS011;3251;53.550;9.918;2024-03-02T11:19:52;19.80;;;10.30;;
6436;SDS011;3251;53.550;9.918;2024-03-02T11:22:18;18.30;;;10.33;;
6436;SDS011;3251;53.550;9.918;2024-03-02T11:24:51;18.67;;;10.40;;
6436;SDS011;3251;53.550;9.918;2024-03-02T11:30:02;16.47;;;9.70;;
6436;SDS011;3251;53.550;9.918;2024-03-02T11:32:28;12.57;;;8.07;;
6436;SDS011;3251;53.550;9.918;2024-03-02T11:34:54;13.73;;;9.50;;
6436;SDS011;3251;53.550;9.918;2024-03-02T11:37:21;18.00;;;8.07;;
6436;SDS011;3251;53.550;9.918;2024-03-02T11:39:49;13.00;;;7.37;;
6436;SDS011;3251;53.550;9.918;2024-03-02T11:42:15;20.30;;;12.90;;
6436;SDS011;3251;53.550;9.918;2024-03-02T11:44:43;37.53;;;17.80;;
6436;SDS011;3251;53.550;9.918;2024-03-02T11:47:10;44.17;;;19.90;;
6436;SDS011;3251;53.550;9.918;2024-03-02T11:52:09;24.40;;;12.87;;
6436;SDS011;3251;53.550;9.918;2024-03-02T11:54:36;29.70;;;11.43;;
6436;SDS011;3251;53.550;9.918;2024-03-02T11:57:07;29.50;;;10.87;;
6436;SDS011;3251;53.550;9.918;2024-03-02T11:59:33;14.90;;;9.40;;
6436;SDS011;3251;53.550;9.918;2024-03-02T12:01:59;19.73;;;8.37;;
6436;SDS011;3251;53.550;9.918;2024-03-02T12:04:26;18.23;;;9.57;;
6436;SDS011;3251;53.550;9.918;2024-03-02T12:06:55;12.10;;;8.10;;
6436;SDS011;3251;53.550;9.918;2024-03-02T12:09:24;14.90;;;8.87;;
6436;SDS011;3251;53.550;9.918;2024-03-02T12:14:30;14.17;;;8.90;;
6436;SDS011;3251;53.550;9.918;2024-03-02T12:16:57;15.60;;;8.70;;
6436;SDS011;3251;53.550;9.918;2024-03-02T12:19:24;26.33;;;13.37;;
6436;SDS011;3251;53.550;9.918;2024-03-02T12:21:50;26.80;;;13.10;;
6436;SDS011;3251;53.550;9.918;2024-03-02T12:24:17;31.93;;;15.00;;
6436;SDS011;3251;53.550;9.918;2024-03-02T12:26:43;17.77;;;10.00;;
6436;SDS011;3251;53.550;9.918;2024-03-02T12:29:10;14.90;;;9.60;;
6436;SDS011;3251;53.550;9.918;2024-03-02T12:31:36;23.73;;;10.50;;
6436;SDS011;3251;53.550;9.918;2024-03-02T12:34:03;11.23;;;7.90;;
6436;SDS011;3251;53.550;9.918;2024-03-02T12:36:29;15.37;;;7.70;;
6436;SDS011;3251;53.550;9.918;2024-03-02T12:38:55;13.17;;;8.53;;
6436;SDS011;3251;53.550;9.918;2024-03-02T12:41:22;16.03;;;8.40;;
6436;SDS011;3251;53.550;9.918;2024-03-02T12:43:49;12.10;;;8.40;;
6436;SDS011;3251;53.550;9.918;2024-03-02T12:46:15;16.80;;;8.60;;
6436;SDS011;3251;53.550;9.918;2024-03-02T12:48:41;23.10;;;8.57;;
6436;SDS011;3251;53.550;9.918;2024-03-02T12:51:07;13.50;;;7.50;;
6436;SDS011;3251;53.550;9.918;2024-03-02T12:53:33;13.53;;;8.00;;
6436;SDS011;3251;53.550;9.918;2024-03-02T12:55:59;13.97;;;7.77;;
6436;SDS011;3251;53.550;9.918;2024-03-02T12:58:26;15.87;;;8.03;;
6436;SDS011;3251;53.550;9.918;2024-03-02T13:01:05;13.30;;;7.27;;
6436;SDS011;3251;53.550;9.918;2024-03-02T13:03:34;14.27;;;6.40;;
6436;SDS011;3251;53.550;9.918;2024-03-02T13:06:01;11.87;;;7.47;;
6436;SDS011;3251;53.550;9.918;2024-03-02T13:08:27;10.53;;;5.97;;
6436;SDS011;3251;53.550;9.918;2024-03-02T13:10:53;14.23;;;5.97;;
6436;SDS011;3251;53.550;9.918;2024-03-02T13:13:20;8.90;;;6.00;;
6436;SDS011;3251;53.550;9.918;2024-03-02T13:15:48;22.03;;;5.77;;
6436;SDS011;3251;53.550;9.918;2024-03-02T13:18:14;7.60;;;5.20;;
6436;SDS011;3251;53.550;9.918;2024-03-02T13:20:40;7.40;;;5.70;;
6436;SDS011;3251;53.550;9.918;2024-03-02T13:23:06;13.33;;;7.37;;
6436;SDS011;3251;53.550;9.918;2024-03-02T13:25:32;9.50;;;6.23;;
6436;SDS011;3251;53.550;9.918;2024-03-02T13:27:59;15.63;;;8.00;;
6436;SDS011;3251;53.550;9.918;2024-03-02T13:30:25;16.63;;;8.07;;
6436;SDS011;3251;53.550;9.918;2024-03-02T13:32:51;10.60;;;7.07;;
6436;SDS011;3251;53.550;9.918;2024-03-02T13:35:19;16.20;;;9.30;;
6436;SDS011;3251;53.550;9.918;2024-03-02T13:37:45;16.57;;;7.40;;
6436;SDS011;3251;53.550;9.918;2024-03-02T13:40:11;13.60;;;7.70;;
6436;SDS011;3251;53.550;9.918;2024-03-02T13:42:42;12.23;;;6.37;;
6436;SDS011;3251;53.550;9.918;2024-03-02T13:45:08;12.23;;;7.50;;
6436;SDS011;3251;53.550;9.918;2024-03-02T13:47:35;12.30;;;8.10;;
6436;SDS011;3251;53.550;9.918;2024-03-02T13:50:01;11.17;;;6.30;;
6436;SDS011;3251;53.550;9.918;2024-03-02T13:52:27;14.50;;;7.80;;
6436;SDS011;3251;53.550;9.918;2024-03-02T13:54:53;18.00;;;7.20;;
6436;SDS011;3251;53.550;9.918;2024-03-02T13:57:19;15.20;;;8.30;;
6436;SDS011;3251;53.550;9.918;2024-03-02T13:59:46;12.40;;;7.13;;
6436;SDS011;3251;53.550;9.918;2024-03-02T14:02:12;14.40;;;9.20;;
6436;SDS011;3251;53.550;9.918;2024-03-02T14:04:38;12.80;;;7.80;;
6436;SDS011;3251;53.550;9.918;2024-03-02T14:07:05;20.13;;;10.67;;
6436;SDS011;3251;53.550;9.918;2024-03-02T14:09:36;16.23;;;9.60;;
6436;SDS011;3251;53.550;9.918;2024-03-02T14:12:03;17.23;;;8.87;;
6436;SDS011;3251;53.550;9.918;2024-03-02T14:14:30;18.43;;;9.63;;
6436;SDS011;3251;53.550;9.918;2024-03-02T14:16:56;14.00;;;8.60;;
6436;SDS011;3251;53.550;9.918;2024-03-02T14:19:25;12.97;;;8.50;;
6436;SDS011;3251;53.550;9.918;2024-03-02T14:21:51;11.70;;;9.03;;
6436;SDS011;3251;53.550;9.918;2024-03-02T14:24:17;16.93;;;8.50;;
6436;SDS011;3251;53.550;9.918;2024-03-02T14:26:43;12.33;;;8.27;;
6436;SDS011;3251;53.550;9.918;2024-03-02T14:29:10;11.93;;;7.47;;
6436;SDS011;3251;53.550;9.918;2024-03-02T14:31:36;11.60;;;7.37;;
6436;SDS011;3251;53.550;9.918;2024-03-02T14:34:02;13.07;;;7.60;;
6436;SDS011;3251;53.550;9.918;2024-03-02T14:36:29;10.93;;;7.30;;
6436;SDS011;3251;53.550;9.918;2024-03-02T14:38:55;14.43;;;7.67;;
6436;SDS011;3251;53.550;9.918;2024-03-02T14:41:21;22.17;;;7.27;;
6436;SDS011;3251;53.550;9.918;2024-03-02T14:43:49;9.57;;;7.50;;
6436;SDS011;3251;53.550;9.918;2024-03-02T14:46:15;11.53;;;7.07;;
6436;SDS011;3251;53.550;9.918;2024-03-02T14:48:42;10.20;;;6.33;;
6436;SDS011;3251;53.550;9.918;2024-03-02T14:51:09;12.80;;;6.43;;
6436;SDS011;3251;53.550;9.918;2024-03-02T14:53:35;12.00;;;6.93;;
6436;SDS011;3251;53.550;9.918;2024-03-02T14:56:03;13.63;;;7.03;;
6436;SDS011;3251;53.550;9.918;2024-03-02T14:58:29;11.27;;;7.87;;
6436;SDS011;3251;53.550;9.918;2024-03-02T15:00:55;35.33;;;6.97;;